Time;durP1;ratioP1;P1;durP2;ratioP2;P2;SDS_P1;SDS_P2;PMS_P1;PMS_P2;Temp;Humidity;BMP_temperature;BMP_pressure;BME280_temperature;BME280_humidity;BME280_pressure;Samples;Min_cycle;Max_cycle;Signal;HPM_P1;HPM_P2
2022/11/26 00:02:32;;;;;;;17.33;10.60;;;6.20;99.90;;;;;;5113974;27;20189;-78
2022/11/26 00:04:58;;;;;;;16.50;10.27;;;6.20;99.90;;;;;;5112507;28;20208;-80
2022/11/26 00:07:28;;;;;;;18.13;10.60;;;6.20;99.90;;;;;;5114044;28;20176;-80
2022/11/26 00:09:54;;;;;;;17.67;10.40;;;6.20;99.90;;;;;;5113660;28;20243;-78
2022/11/26 00:12:26;;;;;;;15.40;10.07;;;6.20;99.90;;;;;;5112066;28;20167;-81
2022/11/26 00:14:52;;;;;;;19.37;10.20;;;6.20;99.90;;;;;;5114114;28;20163;-78
2022/11/26 00:17:19;;;;;;;17.00;10.67;;;6.20;99.90;;;;;;5112631;28;20685;-78
2022/11/26 00:19:45;;;;;;;16.53;9.97;;;6.20;99.90;;;;;;5112796;28;20175;-79
2022/11/26 00:22:18;;;;;;;15.60;10.00;;;6.20;99.90;;;;;;5113474;28;20203;-80
2022/11/26 00:24:44;;;;;;;16.63;10.53;;;6.20;99.90;;;;;;5113750;28;20242;-78
2022/11/26 00:27:10;;;;;;;16.87;10.07;;;6.10;99.90;;;;;;5113706;28;20267;-78
2022/11/26 00:29:36;;;;;;;17.87;9.50;;;6.10;99.90;;;;;;5113624;28;20183;-78
2022/11/26 00:32:02;;;;;;;14.77;9.67;;;6.00;99.90;;;;;;5112008;28;20217;-79
2022/11/26 00:34:27;;;;;;;17.10;9.60;;;6.00;99.90;;;;;;5084656;22;20230;-78
2022/11/26 00:36:53;;;;;;;14.23;9.40;;;6.00;99.90;;;;;;5051447;28;20171;-78
2022/11/26 00:39:22;;;;;;;17.00;9.90;;;6.00;99.90;;;;;;5051681;28;20168;-78
2022/11/26 00:41:50;;;;;;;13.73;9.10;;;5.90;99.90;;;;;;5051308;28;20208;-78
2022/11/26 00:44:22;;;;;;;17.00;9.47;;;6.00;99.90;;;;;;5051282;28;20220;-78
2022/11/26 00:46:48;;;;;;;13.33;9.00;;;5.90;99.90;;;;;;5051148;28;20176;-78
2022/11/26 00:49:15;;;;;;;15.67;9.27;;;5.90;99.90;;;;;;5051390;28;20179;-78
2022/11/26 00:51:41;;;;;;;17.73;9.70;;;5.80;99.90;;;;;;5051170;28;20239;-78
2022/11/26 00:54:15;;;;;;;14.30;9.53;;;5.80;99.90;;;;;;5050605;28;20188;-78
2022/11/26 00:56:40;;;;;;;17.13;9.80;;;5.80;99.90;;;;;;5051236;28;20678;-78
2022/11/26 00:59:08;;;;;;;16.83;8.87;;;5.80;99.90;;;;;;5052319;28;20177;-79
2022/11/26 01:01:34;;;;;;;14.13;8.83;;;5.80;99.90;;;;;;5052190;28;20184;-78
2022/11/26 01:03:59;;;;;;;15.23;9.07;;;5.80;99.90;;;;;;5052064;28;20220;-78
2022/11/26 01:06:32;;;;;;;13.17;8.80;;;5.80;99.90;;;;;;5050884;28;20204;-78
2022/11/26 01:08:58;;;;;;;15.87;9.30;;;5.80;99.90;;;;;;5052294;28;20255;-78
2022/11/26 01:11:24;;;;;;;14.03;8.83;;;5.80;99.90;;;;;;5052066;28;20269;-78
2022/11/26 01:13:51;;;;;;;14.93;9.20;;;5.80;99.90;;;;;;5051943;28;20196;-78
2022/11/26 01:16:25;;;;;;;16.57;9.33;;;5.80;99.90;;;;;;5050916;28;20177;-78
2022/11/26 01:18:52;;;;;;;14.43;9.00;;;5.80;99.90;;;;;;5050855;28;20179;-78
2022/11/26 01:21:19;;;;;;;15.83;9.80;;;5.80;99.90;;;;;;5050740;28;20176;-78
2022/11/26 01:23:45;;;;;;;14.67;10.00;;;5.80;99.90;;;;;;5050624;28;20252;-78
2022/11/26 01:26:20;;;;;;;14.27;9.77;;;5.80;99.90;;;;;;5050759;28;20176;-78
2022/11/26 01:28:46;;;;;;;17.30;9.60;;;5.90;99.90;;;;;;5050721;28;20175;-78
2022/11/26 01:31:14;;;;;;;15.83;9.63;;;5.90;99.90;;;;;;5050863;28;20200;-79
2022/11/26 01:33:40;;;;;;;15.60;9.87;;;5.80;99.90;;;;;;5050414;28;20680;-78
2022/11/26 01:36:15;;;;;;;16.07;9.40;;;5.90;99.90;;;;;;5051899;28;20172;-78
2022/11/26 01:38:41;;;;;;;15.60;9.40;;;5.90;99.90;;;;;;5050630;28;20186;-78
2022/11/26 01:41:19;;;;;;;16.47;9.80;;;5.80;99.90;;;;;;5050620;28;20172;-78
2022/11/26 01:43:48;;;;;;;16.00;9.77;;;5.80;99.90;;;;;;5050335;28;20199;-78
2022/11/26 01:46:16;;;;;;;14.27;9.40;;;5.80;99.90;;;;;;5051950;28;20185;-79
2022/11/26 01:48:42;;;;;;;16.10;9.70;;;5.80;99.90;;;;;;5050531;28;20172;-78
2022/11/26 01:51:10;;;;;;;15.77;9.60;;;5.80;99.90;;;;;;5051749;28;20368;-78
2022/11/26 01:53:52;;;;;;;16.90;9.07;;;5.90;99.90;;;;;;5051198;28;20193;-78
2022/11/26 01:56:37;;;;;;;14.80;9.27;;;5.90;99.90;;;;;;5051938;28;20171;-78
2022/11/26 01:59:15;;;;;;;17.73;9.87;;;5.90;99.90;;;;;;5050456;28;20650;-78
2022/11/26 02:01:41;;;;;;;17.17;9.83;;;5.90;99.90;;;;;;5051610;28;20295;-78
2022/11/26 02:04:07;;;;;;;13.73;8.87;;;5.80;99.90;;;;;;5050281;28;20204;-79
2022/11/26 02:06:33;;;;;;;16.03;9.60;;;5.80;99.90;;;;;;5051825;28;20181;-78
2022/11/26 02:09:02;;;;;;;14.23;9.40;;;5.80;99.90;;;;;;5051749;28;20263;-78
2022/11/26 02:11:28;;;;;;;15.67;8.83;;;5.80;99.90;;;;;;5050404;28;20204;-78
2022/11/26 02:14:01;;;;;;;15.67;8.80;;;5.80;99.90;;;;;;5051575;28;20231;-78
2022/11/26 02:16:55;;;;;;;13.63;8.40;;;5.80;99.90;;;;;;5051590;28;20216;-78
2022/11/26 02:19:38;;;;;;;11.60;8.37;;;5.80;99.90;;;;;;5052075;28;20197;-78
2022/11/26 02:22:35;;;;;;;16.37;8.80;;;5.80;99.90;;;;;;5055373;28;20177;-78
2022/11/26 02:25:06;;;;;;;18.77;8.63;;;5.80;99.90;;;;;;5055259;28;20646;-78
2022/11/26 02:28:05;;;;;;;16.47;9.03;;;5.80;99.90;;;;;;5055320;28;20267;-78
2022/11/26 02:30:36;;;;;;;14.00;8.67;;;5.80;99.90;;;;;;5055092;28;20212;-78
2022/11/26 02:33:30;;;;;;;12.50;8.53;;;5.80;99.90;;;;;;5053752;28;20210;-78
2022/11/26 02:36:04;;;;;;;13.90;8.30;;;5.90;99.90;;;;;;5049431;28;20185;-78
2022/11/26 02:38:31;;;;;;;12.47;8.87;;;5.80;99.90;;;;;;5055186;28;20190;-78
2022/11/26 02:40:58;;;;;;;14.90;9.03;;;5.80;99.90;;;;;;5053578;28;20181;-78
2022/11/26 02:43:25;;;;;;;14.57;9.37;;;5.90;99.90;;;;;;5053618;28;20697;-78
2022/11/26 02:45:57;;;;;;;14.90;8.50;;;5.90;99.90;;;;;;5054918;28;20272;-79
2022/11/26 02:48:30;;;;;;;13.60;8.50;;;5.90;99.90;;;;;;5053547;28;20204;-78
2022/11/26 02:51:00;;;;;;;15.20;7.90;;;5.90;99.90;;;;;;5054708;28;20574;-78
2022/11/26 02:53:29;;;;;;;12.67;8.10;;;5.90;99.90;;;;;;5054195;28;20192;-78
2022/11/26 02:56:04;;;;;;;14.53;8.30;;;5.90;99.90;;;;;;5054793;28;20183;-78
2022/11/26 02:58:31;;;;;;;12.20;8.57;;;5.90;99.90;;;;;;5053607;28;20310;-78
2022/11/26 03:00:59;;;;;;;13.50;7.90;;;5.90;99.90;;;;;;5054484;28;20654;-78
2022/11/26 03:03:31;;;;;;;14.47;8.00;;;5.90;99.90;;;;;;5052960;28;20282;-78
2022/11/26 03:06:02;;;;;;;16.63;8.10;;;5.90;99.90;;;;;;5054928;28;20528;-78
2022/11/26 03:08:29;;;;;;;14.97;8.30;;;5.90;99.90;;;;;;5053473;28;20207;-79
2022/11/26 03:10:54;;;;;;;13.37;8.07;;;5.90;99.90;;;;;;5053176;28;20288;-78
2022/11/26 03:13:20;;;;;;;10.23;7.67;;;5.90;99.90;;;;;;5054162;28;20288;-78
2022/11/26 03:15:46;;;;;;;13.97;8.30;;;5.90;99.90;;;;;;5054327;28;20647;-78
2022/11/26 03:18:11;;;;;;;17.20;7.87;;;5.90;99.90;;;;;;5053189;28;20180;-78
2022/11/26 03:20:37;;;;;;;14.57;8.57;;;5.90;99.90;;;;;;5052921;28;20171;-78
2022/11/26 03:23:02;;;;;;;14.37;8.17;;;5.90;99.90;;;;;;5052665;28;20247;-78
2022/11/26 03:25:28;;;;;;;17.43;8.77;;;5.90;99.90;;;;;;5054187;28;20239;-78
2022/11/26 03:27:54;;;;;;;13.50;8.20;;;5.90;99.90;;;;;;5053081;28;20177;-78
2022/11/26 03:30:19;;;;;;;12.13;7.83;;;5.90;99.90;;;;;;5052651;28;20548;-78
2022/11/26 03:32:45;;;;;;;15.10;8.60;;;5.90;99.90;;;;;;5052344;28;20275;-78
2022/11/26 03:35:11;;;;;;;14.23;8.10;;;5.90;99.90;;;;;;5052634;28;20655;-78
2022/11/26 03:37:36;;;;;;;14.93;8.47;;;5.90;99.90;;;;;;5052779;28;20666;-78
2022/11/26 03:40:03;;;;;;;13.93;8.67;;;5.90;99.90;;;;;;5052676;28;20230;-78
2022/11/26 03:42:28;;;;;;;14.73;8.47;;;5.90;99.90;;;;;;5052312;28;20188;-78
2022/11/26 03:44:54;;;;;;;12.30;7.50;;;5.90;99.90;;;;;;5052488;28;20181;-78
2022/11/26 03:47:19;;;;;;;13.93;8.27;;;5.90;99.90;;;;;;5052408;28;20311;-78
2022/11/26 03:49:45;;;;;;;11.27;8.03;;;5.90;99.90;;;;;;5052382;28;20203;-78
2022/11/26 03:52:11;;;;;;;14.80;8.67;;;6.00;99.90;;;;;;5053681;28;20291;-78
2022/11/26 03:54:36;;;;;;;14.30;8.13;;;5.90;99.90;;;;;;5051845;28;20189;-78
2022/11/26 03:57:02;;;;;;;12.70;8.13;;;5.90;99.90;;;;;;5053547;28;20180;-78
2022/11/26 03:59:28;;;;;;;13.53;8.53;;;5.90;99.90;;;;;;5052152;28;20267;-79
2022/11/26 04:01:53;;;;;;;13.97;8.30;;;5.90;99.90;;;;;;5052368;28;20591;-78
2022/11/26 04:04:19;;;;;;;12.57;7.97;;;5.90;99.90;;;;;;5052222;28;20205;-78
2022/11/26 04:06:44;;;;;;;12.77;7.90;;;5.90;99.90;;;;;;5053331;28;20182;-78
2022/11/26 04:09:10;;;;;;;12.50;7.97;;;5.90;99.90;;;;;;5053314;28;20180;-78
2022/11/26 04:11:36;;;;;;;14.90;8.40;;;5.90;99.90;;;;;;5053758;28;20197;-78
2022/11/26 04:14:01;;;;;;;14.83;7.93;;;5.90;99.90;;;;;;5053319;28;20232;-78
2022/11/26 04:16:27;;;;;;;12.63;7.57;;;5.90;99.90;;;;;;5053194;28;20182;-78
2022/11/26 04:18:52;;;;;;;13.97;7.73;;;5.90;99.90;;;;;;5053184;28;20216;-79
2022/11/26 04:21:18;;;;;;;13.80;8.03;;;5.80;99.90;;;;;;5052974;28;20173;-78
2022/11/26 04:23:43;;;;;;;11.53;7.27;;;5.80;99.90;;;;;;5052791;28;20280;-78
2022/11/26 04:26:09;;;;;;;12.23;7.40;;;5.80;99.90;;;;;;5052907;28;20608;-78
2022/11/26 04:28:34;;;;;;;12.40;7.00;;;5.70;99.90;;;;;;5052707;28;20176;-78
2022/11/26 04:31:00;;;;;;;10.63;6.97;;;5.70;99.90;;;;;;5051763;28;20338;-78
2022/11/26 04:33:26;;;;;;;10.23;6.80;;;5.70;99.90;;;;;;5052452;28;20303;-78
2022/11/26 04:35:52;;;;;;;10.90;6.37;;;5.60;99.90;;;;;;5051767;28;20191;-79
2022/11/26 04:38:17;;;;;;;10.47;6.97;;;5.50;99.90;;;;;;5051680;28;20186;-78
2022/11/26 04:40:43;;;;;;;11.07;6.80;;;5.40;99.90;;;;;;5051033;28;20199;-77
2022/11/26 04:43:08;;;;;;;10.57;6.43;;;5.40;99.90;;;;;;5051029;28;20207;-78
2022/11/26 04:45:34;;;;;;;7.97;6.07;;;5.30;99.90;;;;;;5051316;28;20180;-78
2022/11/26 04:48:00;;;;;;;12.80;6.90;;;5.20;99.90;;;;;;5052650;28;20184;-79
2022/11/26 04:50:25;;;;;;;12.20;6.67;;;5.20;99.90;;;;;;5052362;28;20199;-78
2022/11/26 04:52:51;;;;;;;10.20;6.53;;;5.10;99.90;;;;;;5052285;28;20279;-78
2022/11/26 04:55:17;;;;;;;9.10;6.40;;;5.10;99.90;;;;;;5051977;28;20211;-78
2022/11/26 04:57:43;;;;;;;9.20;5.80;;;5.10;99.90;;;;;;5051365;28;20264;-78
2022/11/26 05:00:10;;;;;;;9.60;6.20;;;5.00;99.90;;;;;;5052475;28;20207;-78
2022/11/26 05:02:35;;;;;;;9.97;6.20;;;5.00;99.90;;;;;;5052087;28;20255;-78
2022/11/26 05:05:01;;;;;;;10.27;6.77;;;4.90;99.90;;;;;;5052387;28;20271;-78
2022/11/26 05:07:26;;;;;;;8.53;5.40;;;4.90;99.90;;;;;;5050943;28;20177;-79
2022/11/26 05:09:52;;;;;;;6.77;5.50;;;4.80;99.90;;;;;;5052140;28;20206;-78
2022/11/26 05:12:17;;;;;;;10.33;5.80;;;4.70;99.90;;;;;;5050853;28;20241;-78
2022/11/26 05:14:43;;;;;;;11.33;6.27;;;4.60;99.90;;;;;;5051050;28;20208;-78
2022/11/26 05:17:08;;;;;;;10.60;6.83;;;4.60;99.90;;;;;;5052205;28;20177;-78
2022/11/26 05:19:34;;;;;;;9.77;6.03;;;4.60;99.90;;;;;;5052179;28;20172;-78
2022/11/26 05:21:59;;;;;;;10.57;5.87;;;4.60;99.90;;;;;;5050845;28;20229;-78
2022/11/26 05:24:25;;;;;;;11.03;6.07;;;4.60;99.90;;;;;;5051766;28;20638;-80
2022/11/26 05:26:51;;;;;;;11.80;6.40;;;4.50;99.90;;;;;;5050811;28;20209;-79
2022/11/26 05:29:16;;;;;;;12.27;6.63;;;4.40;99.90;;;;;;5050880;28;20182;-79
2022/11/26 05:31:42;;;;;;;9.73;6.40;;;4.40;99.90;;;;;;5050797;28;20205;-79
2022/11/26 05:34:07;;;;;;;7.23;5.60;;;4.40;99.90;;;;;;5050327;28;20260;-79
2022/11/26 05:36:33;;;;;;;12.20;6.77;;;4.30;99.90;;;;;;5051851;28;20162;-79
2022/11/26 05:38:58;;;;;;;9.40;6.20;;;4.20;99.90;;;;;;5050564;28;20529;-79
2022/11/26 05:41:24;;;;;;;8.13;6.20;;;4.20;99.90;;;;;;5052077;28;20269;-82
2022/11/26 05:43:49;;;;;;;13.33;5.97;;;4.20;99.90;;;;;;5051828;28;20193;-79
2022/11/26 05:46:17;;;;;;;11.77;6.00;;;4.20;99.90;;;;;;5050747;28;20270;-79
2022/11/26 05:48:42;;;;;;;11.77;6.10;;;4.20;99.90;;;;;;5052001;28;20581;-79
2022/11/26 05:51:08;;;;;;;8.73;6.20;;;4.30;99.90;;;;;;5051765;28;20698;-79
2022/11/26 05:53:34;;;;;;;11.53;6.70;;;4.30;99.90;;;;;;5053188;28;20671;-79
2022/11/26 05:55:59;;;;;;;11.90;6.80;;;4.30;99.90;;;;;;5055702;28;20193;-79
2022/11/26 05:58:25;;;;;;;12.80;6.70;;;4.30;99.90;;;;;;5055927;28;20174;-79
2022/11/26 06:00:51;;;;;;;11.10;6.93;;;4.30;99.90;;;;;;5054489;28;20562;-78
2022/11/26 06:03:17;;;;;;;9.87;6.77;;;4.30;99.90;;;;;;5054408;28;20225;-80
2022/11/26 06:05:42;;;;;;;10.17;6.60;;;4.30;99.90;;;;;;5055510;28;20208;-79
2022/11/26 06:08:08;;;;;;;9.87;6.47;;;4.30;99.90;;;;;;5054684;28;20175;-78
2022/11/26 06:10:33;;;;;;;11.17;7.00;;;4.30;99.90;;;;;;5054850;28;20195;-79
2022/11/26 06:12:59;;;;;;;9.90;6.17;;;4.80;99.90;;;;;;5056604;28;20194;-79
2022/11/26 06:15:24;;;;;;;7.80;5.33;;;5.50;99.90;;;;;;5055340;28;20266;-78
2022/11/26 06:17:50;;;;;;;6.30;5.00;;;6.00;99.90;;;;;;5055874;28;20175;-78
2022/11/26 06:20:16;;;;;;;9.20;6.10;;;6.30;99.90;;;;;;5055039;28;20645;-78
2022/11/26 06:22:42;;;;;;;5.93;4.73;;;6.20;99.90;;;;;;5054315;28;20177;-79
2022/11/26 06:25:11;;;;;;;6.87;5.40;;;5.70;99.90;;;;;;5056591;28;20259;-79
2022/11/26 06:27:37;;;;;;;8.53;5.20;;;5.10;99.90;;;;;;5055410;28;20167;-81
2022/11/26 06:30:04;;;;;;;8.00;6.00;;;4.70;99.90;;;;;;5055057;28;20176;-80
2022/11/26 06:32:30;;;;;;;9.17;6.20;;;4.60;99.90;;;;;;5054834;28;20206;-80
2022/11/26 06:34:57;;;;;;;9.07;5.60;;;4.50;99.90;;;;;;5126186;22;20708;-80
2022/11/26 06:37:22;;;;;;;8.17;5.10;;;4.40;99.90;;;;;;5074319;28;20215;-83
2022/11/26 06:39:48;;;;;;;7.73;5.27;;;4.30;99.90;;;;;;5075937;28;20260;-84
2022/11/26 06:42:14;;;;;;;11.83;5.70;;;4.20;99.90;;;;;;5074706;28;20262;-82
2022/11/26 06:44:39;;;;;;;8.10;5.57;;;4.20;99.90;;;;;;5075944;28;20260;-83
2022/11/26 06:47:08;;;;;;;7.17;5.83;;;4.20;99.90;;;;;;5074261;28;20173;-83
2022/11/26 06:49:34;;;;;;;7.53;5.20;;;4.20;99.90;;;;;;5074455;28;20201;-83
2022/11/26 06:51:59;;;;;;;7.93;5.53;;;4.20;99.90;;;;;;5073645;28;20271;-82
2022/11/26 06:54:25;;;;;;;10.00;6.20;;;4.20;99.90;;;;;;5073825;28;20189;-83
2022/11/26 06:56:50;;;;;;;10.10;6.20;;;4.20;99.90;;;;;;5074223;28;20174;-83
2022/11/26 06:59:16;;;;;;;12.07;6.97;;;4.30;99.90;;;;;;5075446;28;20173;-82
2022/11/26 07:01:41;;;;;;;10.93;6.73;;;4.30;99.90;;;;;;5073788;28;20195;-82
2022/11/26 07:04:09;;;;;;;15.73;7.97;;;4.30;99.90;;;;;;5072903;28;20213;-82
2022/11/26 07:06:34;;;;;;;18.67;9.17;;;4.30;99.90;;;;;;5074233;28;20189;-82
2022/11/26 07:09:07;;;;;;;15.50;9.43;;;4.30;99.90;;;;;;5062540;28;20185;-82
2022/11/26 07:11:33;;;;;;;17.93;9.90;;;4.40;99.90;;;;;;5052814;28;20547;-82
2022/11/26 07:14:00;;;;;;;17.90;10.20;;;4.50;99.90;;;;;;5053541;28;20198;-79
2022/11/26 07:16:26;;;;;;;17.93;10.37;;;4.50;99.90;;;;;;5055176;28;20261;-82
2022/11/26 07:18:53;;;;;;;22.77;10.73;;;4.50;99.90;;;;;;5054014;28;20268;-81
2022/11/26 07:21:19;;;;;;;20.50;10.33;;;4.50;99.90;;;;;;5053430;28;20184;-80
2022/11/26 07:23:45;;;;;;;20.97;11.10;;;4.50;99.90;;;;;;5053334;28;20285;-80
2022/11/26 07:26:12;;;;;;;20.00;11.20;;;4.50;99.90;;;;;;5054588;28;20246;-81
2022/11/26 07:28:38;;;;;;;21.27;11.37;;;4.50;99.90;;;;;;5053243;28;20227;-80
2022/11/26 07:31:06;;;;;;;20.20;10.37;;;4.60;99.90;;;;;;5053180;28;20239;-80
2022/11/26 07:33:32;;;;;;;22.37;10.57;;;4.60;99.90;;;;;;5054568;28;20216;-80
2022/11/26 07:36:04;;;;;;;20.20;10.13;;;4.60;99.90;;;;;;5053635;28;20647;-83
2022/11/26 07:38:30;;;;;;;19.87;10.80;;;4.60;99.90;;;;;;5053197;28;20173;-83
2022/11/26 07:41:03;;;;;;;58.80;23.97;;;4.60;99.90;;;;;;5054297;28;20189;-83
2022/11/26 07:43:29;;;;;;;29.43;13.67;;;4.70;99.90;;;;;;5054276;28;20221;-84
2022/11/26 07:45:55;;;;;;;35.90;15.97;;;4.70;99.90;;;;;;5054496;28;20190;-83
2022/11/26 07:48:20;;;;;;;23.73;12.30;;;4.70;99.90;;;;;;5053217;28;20529;-82
2022/11/26 07:50:46;;;;;;;20.33;11.40;;;4.80;99.90;;;;;;5053714;28;20194;-83
2022/11/26 07:53:13;;;;;;;19.53;11.13;;;4.80;99.90;;;;;;5053765;28;20170;-81
2022/11/26 07:55:39;;;;;;;22.83;12.90;;;4.90;99.90;;;;;;5052880;28;20167;-83
2022/11/26 07:58:04;;;;;;;21.10;11.57;;;4.90;99.90;;;;;;5054090;28;20245;-85
2022/11/26 08:00:30;;;;;;;25.00;13.73;;;4.90;99.90;;;;;;5054488;28;20274;-84
2022/11/26 08:02:56;;;;;;;24.40;11.90;;;4.90;99.90;;;;;;5052936;28;20174;-84
2022/11/26 08:05:21;;;;;;;37.70;21.23;;;5.00;99.90;;;;;;5052666;28;20184;-84
2022/11/26 08:07:47;;;;;;;24.13;12.77;;;5.00;99.90;;;;;;5053133;28;20212;-84
2022/11/26 08:10:12;;;;;;;21.20;11.93;;;5.00;99.90;;;;;;5052413;28;20574;-84
2022/11/26 08:12:38;;;;;;;21.00;11.83;;;5.10;99.90;;;;;;5054034;28;20177;-85
2022/11/26 08:15:04;;;;;;;23.77;13.13;;;5.10;99.90;;;;;;5051710;28;20201;-84
2022/11/26 08:17:29;;;;;;;19.77;12.57;;;5.10;99.90;;;;;;5054062;28;20202;-84
2022/11/26 08:19:55;;;;;;;25.23;14.60;;;5.00;99.90;;;;;;5052669;28;20174;-84
2022/11/26 08:22:21;;;;;;;24.60;14.60;;;5.00;99.90;;;;;;5052014;28;20190;-84
2022/11/26 08:24:47;;;;;;;27.43;14.10;;;5.00;99.90;;;;;;5052555;28;20254;-84
2022/11/26 08:27:13;;;;;;;20.80;11.87;;;5.00;99.90;;;;;;5052334;28;20179;-84
2022/11/26 08:29:39;;;;;;;20.30;11.23;;;5.00;99.90;;;;;;5052588;28;20191;-84
2022/11/26 08:32:04;;;;;;;20.03;12.03;;;5.10;99.90;;;;;;5052121;28;20194;-84
2022/11/26 08:34:30;;;;;;;15.20;10.47;;;5.10;99.90;;;;;;5051415;28;20214;-84
2022/11/26 08:36:55;;;;;;;20.03;11.33;;;5.20;99.90;;;;;;5053108;28;20223;-85
2022/11/26 08:39:21;;;;;;;16.73;9.83;;;5.20;99.90;;;;;;5053512;28;20181;-84
2022/11/26 08:41:47;;;;;;;18.33;10.17;;;5.20;99.90;;;;;;5051803;28;20180;-84
2022/11/26 08:44:12;;;;;;;19.13;10.13;;;5.30;99.90;;;;;;5051655;28;20225;-84
2022/11/26 08:46:40;;;;;;;18.00;10.03;;;5.30;99.90;;;;;;5053452;28;20179;-85
2022/11/26 08:49:08;;;;;;;18.40;10.17;;;5.40;99.90;;;;;;5052044;28;20662;-84
2022/11/26 08:51:33;;;;;;;19.03;9.80;;;5.40;99.90;;;;;;5051715;28;20326;-84
2022/11/26 08:53:59;;;;;;;15.57;9.00;;;5.40;99.90;;;;;;5053462;28;20218;-84
2022/11/26 08:56:25;;;;;;;19.03;9.73;;;5.40;99.90;;;;;;5052071;28;20223;-84
2022/11/26 08:58:50;;;;;;;19.60;11.63;;;5.50;99.90;;;;;;5051848;28;20231;-84
2022/11/26 09:01:23;;;;;;;17.87;9.87;;;5.50;99.90;;;;;;5053114;28;20173;-84
2022/11/26 09:03:50;;;;;;;17.27;10.30;;;5.50;99.90;;;;;;5052713;28;20284;-84
2022/11/26 09:06:17;;;;;;;16.50;9.93;;;5.50;99.90;;;;;;5051673;28;20185;-84
2022/11/26 09:11:28;;;;;;;16.57;9.00;;;5.60;99.90;;;;;;5053138;28;20752;-84
2022/11/26 09:13:54;;;;;;;16.83;9.80;;;5.60;99.90;;;;;;5051497;28;20194;-84
2022/11/26 09:16:23;;;;;;;17.93;10.80;;;5.60;99.90;;;;;;5051466;28;20319;-84
2022/11/26 09:18:50;;;;;;;18.17;10.07;;;5.60;99.90;;;;;;5051450;28;20209;-85
2022/11/26 09:21:15;;;;;;;20.37;9.63;;;5.60;99.90;;;;;;5051508;28;20188;-84
2022/11/26 09:23:41;;;;;;;18.80;9.73;;;5.60;99.90;;;;;;5052545;28;20201;-85
2022/11/26 09:26:07;;;;;;;18.60;9.60;;;5.70;99.90;;;;;;5051273;28;20178;-84
2022/11/26 09:28:32;;;;;;;16.73;9.67;;;5.70;99.90;;;;;;5051355;28;20274;-84
2022/11/26 09:30:59;;;;;;;15.17;8.53;;;5.80;99.90;;;;;;5052622;28;20195;-84
2022/11/26 09:33:25;;;;;;;19.33;11.03;;;5.90;99.90;;;;;;5052613;28;20303;-84
2022/11/26 09:35:50;;;;;;;13.87;9.27;;;5.90;99.90;;;;;;5051459;28;20662;-84
2022/11/26 09:38:16;;;;;;;14.63;9.50;;;6.00;99.90;;;;;;5052710;28;20197;-83
2022/11/26 09:40:52;;;;;;;16.20;9.80;;;6.00;99.90;;;;;;5051263;28;20214;-84
2022/11/26 09:43:34;;;;;;;15.43;8.83;;;6.00;99.90;;;;;;5050766;28;20306;-84
2022/11/26 09:46:00;;;;;;;16.13;8.97;;;6.00;99.90;;;;;;5052745;28;20171;-84
2022/11/26 09:48:29;;;;;;;18.00;8.63;;;6.00;99.90;;;;;;5051596;28;20718;-84
2022/11/26 09:51:03;;;;;;;12.97;8.17;;;6.00;99.90;;;;;;5051252;28;20246;-84
2022/11/26 09:53:36;;;;;;;13.43;8.60;;;6.00;99.90;;;;;;5051897;28;20671;-84
2022/11/26 09:56:02;;;;;;;12.87;7.40;;;6.00;99.90;;;;;;5051181;28;20177;-84
2022/11/26 09:58:52;;;;;;;12.67;7.07;;;6.00;99.90;;;;;;5052517;28;20181;-84
2022/11/26 10:01:21;;;;;;;12.70;6.37;;;6.10;99.90;;;;;;5051142;28;20219;-84
2022/11/26 10:03:47;;;;;;;13.97;6.60;;;6.10;99.90;;;;;;5052174;28;20203;-84
2022/11/26 10:06:44;;;;;;;10.97;7.23;;;6.20;99.90;;;;;;5050889;28;20184;-84
2022/11/26 10:09:16;;;;;;;12.77;7.70;;;6.20;99.90;;;;;;5051152;28;20243;-84
2022/11/26 10:12:03;;;;;;;14.80;6.70;;;6.20;99.90;;;;;;5050670;28;20203;-85
2022/11/26 10:14:46;;;;;;;13.03;7.17;;;6.30;99.90;;;;;;5052011;28;20200;-84
2022/11/26 10:17:29;;;;;;;15.60;7.30;;;6.20;99.90;;;;;;5052147;28;20186;-84
2022/11/26 10:20:00;;;;;;;12.67;7.73;;;6.20;99.90;;;;;;5052061;28;20535;-84
2022/11/26 10:23:10;;;;;;;11.67;6.37;;;6.20;99.90;;;;;;5052279;28;20175;-84
2022/11/26 10:25:45;;;;;;;10.53;5.93;;;6.20;99.90;;;;;;5032520;28;20305;-84
2022/11/26 10:28:44;;;;;;;13.90;6.70;;;6.20;99.90;;;;;;5052413;28;20233;-84
2022/11/26 10:31:19;;;;;;;15.37;7.57;;;6.20;99.90;;;;;;5043892;28;20628;-84
2022/11/26 10:34:17;;;;;;;14.50;7.43;;;6.30;99.90;;;;;;5050565;28;20589;-84
2022/11/26 10:36:45;;;;;;;15.10;7.77;;;6.30;99.90;;;;;;5047793;28;20188;-84
2022/11/26 10:39:16;;;;;;;14.67;7.80;;;6.30;99.90;;;;;;5052827;28;20206;-84
2022/11/26 10:41:42;;;;;;;13.47;7.60;;;6.40;99.90;;;;;;5054191;28;20176;-84
2022/11/26 10:44:47;;;;;;;12.70;7.80;;;6.40;99.90;;;;;;5055323;28;20198;-84
2022/11/26 10:47:31;;;;;;;15.00;8.20;;;6.40;99.90;;;;;;5013267;28;20217;-82
2022/11/26 10:50:03;;;;;;;16.13;8.50;;;6.50;99.90;;;;;;5013184;28;20213;-84
2022/11/26 10:52:32;;;;;;;16.67;7.97;;;6.40;99.90;;;;;;5031964;28;20215;-84
2022/11/26 10:55:29;;;;;;;11.73;6.10;;;6.40;99.90;;;;;;5055052;28;20195;-85
2022/11/26 10:58:04;;;;;;;15.63;6.83;;;6.40;99.90;;;;;;5053477;28;20629;-84
2022/11/26 11:00:37;;;;;;;12.53;6.47;;;6.50;99.90;;;;;;5053930;28;20164;-82
2022/11/26 11:03:16;;;;;;;12.50;6.50;;;6.50;99.90;;;;;;5053227;28;20171;-85
2022/11/26 11:05:43;;;;;;;12.37;6.53;;;6.50;99.90;;;;;;5053732;28;20241;-88
2022/11/26 11:08:29;;;;;;;14.53;6.27;;;6.50;99.90;;;;;;5053629;28;20195;-87
2022/11/26 11:10:58;;;;;;;9.80;5.80;;;6.50;99.90;;;;;;5062125;28;20282;-85
2022/11/26 11:13:39;;;;;;;12.80;6.63;;;6.50;99.90;;;;;;5073320;28;20280;-87
2022/11/26 11:16:06;;;;;;;16.07;8.13;;;6.50;99.90;;;;;;5060866;28;20262;-87
2022/11/26 11:18:34;;;;;;;15.60;8.27;;;6.50;99.90;;;;;;5054555;28;20252;-86
2022/11/26 11:21:04;;;;;;;13.57;6.93;;;6.80;99.90;;;;;;5058757;28;20211;-86
2022/11/26 11:23:34;;;;;;;9.17;6.87;;;6.80;99.90;;;;;;5074396;28;20204;-86
2022/11/26 11:26:08;;;;;;;15.97;6.53;;;6.80;99.90;;;;;;5061693;28;20215;-82
2022/11/26 11:28:41;;;;;;;12.93;6.80;;;7.20;99.90;;;;;;5054994;28;20177;-83
2022/11/26 11:31:07;;;;;;;19.73;8.20;;;7.70;99.90;;;;;;5053367;28;20201;-85
2022/11/26 11:33:32;;;;;;;14.33;6.80;;;8.20;99.90;;;;;;5052595;28;20212;-84
2022/11/26 11:36:03;;;;;;;11.40;6.77;;;8.00;99.90;;;;;;5053404;28;20201;-82
2022/11/26 11:38:31;;;;;;;14.33;7.47;;;7.70;99.90;;;;;;5053438;28;20170;-85
2022/11/26 11:41:00;;;;;;;15.57;7.03;;;7.50;99.90;;;;;;5053072;28;20185;-82
2022/11/26 11:43:26;;;;;;;15.43;7.53;;;7.40;99.90;;;;;;5053005;28;20204;-82
2022/11/26 11:46:17;;;;;;;15.13;7.07;;;7.30;99.90;;;;;;5054379;28;20177;-82
2022/11/26 11:48:45;;;;;;;13.13;6.30;;;7.20;99.90;;;;;;5053082;28;20178;-81
2022/11/26 11:51:40;;;;;;;12.20;6.93;;;7.10;99.90;;;;;;5053971;28;20694;-82
2022/11/26 11:54:28;;;;;;;12.63;6.63;;;7.00;99.90;;;;;;5052636;28;20190;-82
2022/11/26 11:57:07;;;;;;;14.97;6.80;;;7.00;99.90;;;;;;5054269;28;20170;-83
2022/11/26 12:00:14;;;;;;;12.67;6.47;;;7.00;99.90;;;;;;5053157;28;20171;-83
2022/11/26 12:02:42;;;;;;;18.87;8.30;;;7.00;99.90;;;;;;5052652;28;20177;-85
2022/11/26 12:05:26;;;;;;;12.23;6.47;;;8.40;99.90;;;;;;5053705;28;20231;-82
2022/11/26 12:08:01;;;;;;;11.20;6.97;;;9.50;99.90;;;;;;5052747;28;20188;-82
2022/11/26 12:10:45;;;;;;;10.73;6.27;;;9.00;99.90;;;;;;5053944;28;20198;-82
2022/11/26 12:13:13;;;;;;;13.63;7.23;;;8.60;99.90;;;;;;5053442;28;20174;-82
2022/11/26 12:15:39;;;;;;;10.73;6.57;;;8.30;99.90;;;;;;5052284;28;20180;-82
2022/11/26 12:18:30;;;;;;;10.97;6.30;;;8.20;99.90;;;;;;5052567;28;20176;-83
2022/11/26 12:20:58;;;;;;;9.10;5.60;;;8.00;99.90;;;;;;5053681;28;20546;-82
2022/11/26 12:23:37;;;;;;;10.63;6.53;;;7.90;99.90;;;;;;5053501;28;20200;-83
2022/11/26 12:26:20;;;;;;;13.97;6.87;;;7.90;99.90;;;;;;5052303;28;20175;-82
2022/11/26 12:29:23;;;;;;;10.73;6.20;;;8.00;99.90;;;;;;5053649;28;20198;-83
2022/11/26 12:31:56;;;;;;;8.17;5.50;;;8.80;99.90;;;;;;5021432;28;20209;-83
2022/11/26 12:34:39;;;;;;;11.80;5.53;;;9.90;99.90;;;;;;5062563;22;20456;-81
2022/11/26 12:37:23;;;;;;;13.33;5.73;;;10.30;99.90;;;;;;5014441;28;20181;-81
2022/11/26 12:40:15;;;;;;;11.87;5.87;;;10.00;99.90;;;;;;5014871;28;20182;-81
2022/11/26 12:43:17;;;;;;;11.03;6.23;;;9.60;99.90;;;;;;5015418;28;20230;-81
2022/11/26 12:46:21;;;;;;;13.07;6.70;;;9.10;99.90;;;;;;5013435;28;20210;-81
2022/11/26 12:48:51;;;;;;;9.97;5.77;;;8.70;99.90;;;;;;5014437;28;20254;-81
2022/11/26 12:51:44;;;;;;;10.53;6.17;;;8.60;99.90;;;;;;5011033;28;20216;-81
2022/11/26 12:54:20;;;;;;;10.20;5.57;;;8.40;99.90;;;;;;5011067;28;20189;-81
2022/11/26 12:57:12;;;;;;;10.80;6.37;;;8.30;99.90;;;;;;5011190;28;20169;-81
2022/11/26 12:59:53;;;;;;;13.57;6.30;;;8.30;99.90;;;;;;5011127;28;20204;-81
2022/11/26 13:02:29;;;;;;;14.00;7.00;;;8.20;99.90;;;;;;5010755;28;20652;-81
2022/11/26 13:04:56;;;;;;;10.53;6.80;;;8.10;99.90;;;;;;5011656;28;20198;-81